Time;durP1;ratioP1;P1;durP2;ratioP2;P2;SDS_P1;SDS_P2;PMS_P1;PMS_P2;Temp;Humidity;BMP_temperature;BMP_pressure;BME280_temperature;BME280_humidity;BME280_pressure;Samples;Min_cycle;Max_cycle;Signal;HPM_P1;HPM_P2
2023/09/22 00:00:10;;;;;;;2.85;1.13;;;14.50;99.90;;;-144.05;84.58;56901.94;5058903;28;20599;-87
2023/09/22 00:02:38;;;;;;;2.75;0.63;;;;;;;-144.05;84.42;56918.94;5044574;28;20425;-87
2023/09/22 00:05:04;;;;;;;3.15;1.02;;;12.30;99.90;;;-144.05;84.73;56933.78;5067657;28;20025;-84
2023/09/22 00:07:30;;;;;;;2.38;1.23;;;15.70;99.90;;;-144.05;84.91;56914.69;5042572;28;20032;-85
2023/09/22 00:09:56;;;;;;;4.47;0.80;;;15.50;99.90;;;-144.05;84.61;56912.56;5050552;28;20040;-87
2023/09/22 00:12:22;;;;;;;2.47;0.70;;;16.10;99.90;;;-144.05;84.09;56935.91;5064810;28;20462;-87
2023/09/22 00:14:48;;;;;;;1.08;0.80;;;;;;;-144.05;84.41;56891.31;5045917;28;20029;-86
2023/09/22 00:17:14;;;;;;;2.17;0.88;;;15.70;99.90;;;-144.05;84.51;56921.06;5050460;28;20111;-86
2023/09/22 00:19:40;;;;;;;2.60;0.98;;;;;;;-144.05;84.29;56916.81;5050431;28;20521;-83
2023/09/22 00:22:06;;;;;;;3.40;1.00;;;;;;;-144.05;84.92;56927.41;5050182;28;20017;-87
2023/09/22 00:24:33;;;;;;;3.30;0.93;;;;;;;-144.05;85.04;56946.53;5050685;28;20033;-85
2023/09/22 00:26:59;;;;;;;1.45;0.85;;;;;;;-144.05;85.16;56908.31;5050655;28;20033;-88
2023/09/22 00:29:25;;;;;;;2.90;1.10;;;;;;;-144.05;85.47;56908.31;5050564;28;20131;-85
2023/09/22 00:31:51;;;;;;;2.35;0.73;;;;;;;-144.05;85.46;56908.31;5050316;28;20065;-86
2023/09/22 00:34:18;;;;;;;2.03;1.00;;;;;;;-144.05;84.86;56882.81;5051802;28;20089;-88
2023/09/22 00:36:44;;;;;;;1.83;0.95;;;12.40;99.90;;;-144.05;83.97;56938.03;5067154;28;20035;-86
2023/09/22 00:39:10;;;;;;;3.10;1.00;;;16.20;99.90;;;-144.05;83.49;56918.94;5052097;28;20024;-88
2023/09/22 00:41:37;;;;;;;2.72;0.93;;;;;;;-144.05;83.21;56925.28;5042229;28;20021;-86
2023/09/22 00:44:03;;;;;;;1.30;1.00;;;16.10;99.90;;;-144.05;83.11;56923.19;5050769;28;20119;-87
2023/09/22 00:46:29;;;;;;;2.95;1.25;;;;;;;-144.05;83.01;56908.31;5050419;28;20120;-86
2023/09/22 00:48:57;;;;;;;2.80;1.48;;;14.70;99.90;;;-144.05;83.63;56927.41;5050980;28;20044;-88
2023/09/22 00:51:23;;;;;;;1.35;1.20;;;;;;;-144.05;82.55;56893.44;5055547;28;20028;-87
2023/09/22 00:53:52;;;;;;;1.35;0.93;;;15.90;99.90;;;-144.05;82.57;56925.28;5062345;28;20040;-87
2023/09/22 00:56:22;;;;;;;2.53;1.40;;;12.50;99.90;;;-144.05;82.71;56925.28;5052877;28;20025;-86
2023/09/22 00:58:51;;;;;;;1.75;1.17;;;12.40;99.90;;;-144.05;82.48;56912.56;5056106;28;20029;-88
2023/09/22 01:01:18;;;;;;;3.08;1.27;;;15.90;99.90;;;-144.05;82.54;56927.41;5056883;28;20503;-86
2023/09/22 01:03:45;;;;;;;2.50;1.10;;;12.30;99.90;;;-144.05;82.32;56931.66;5057556;28;20108;-87
2023/09/22 01:06:11;;;;;;;2.08;0.85;;;;;;;-144.05;81.54;56908.31;5054586;28;20446;-89
2023/09/22 01:08:37;;;;;;;2.13;1.23;;;16.30;99.90;;;-144.05;81.49;56940.16;5062753;28;21072;-86
2023/09/22 01:11:04;;;;;;;2.08;1.20;;;14.80;99.90;;;-144.05;81.64;56923.19;5055523;28;20037;-86
2023/09/22 01:13:31;;;;;;;1.42;1.13;;;16.30;99.90;;;-144.05;80.22;56931.66;5038958;28;20033;-86
2023/09/22 01:15:58;;;;;;;2.78;1.00;;;14.70;99.90;;;-144.05;79.87;56914.69;5055392;28;20021;-87
2023/09/22 01:18:24;;;;;;;1.25;0.95;;;15.60;99.90;;;-144.05;78.46;56910.44;5056051;28;20396;-87
2023/09/22 01:20:50;;;;;;;2.70;1.00;;;15.30;99.90;;;-144.05;77.05;56931.66;5054882;28;20055;-85
2023/09/22 01:23:15;;;;;;;2.05;0.93;;;15.70;99.90;;;-144.05;75.70;56927.41;5055271;28;20029;-85
2023/09/22 01:25:43;;;;;;;3.53;1.02;;;14.70;99.90;;;-144.05;74.81;56927.41;5046840;28;20106;-84
2023/09/22 01:28:11;;;;;;;2.80;0.93;;;14.70;99.90;;;-144.05;75.23;56927.41;5053884;28;20077;-87
2023/09/22 01:30:42;;;;;;;3.13;0.88;;;14.70;99.90;;;-144.05;75.04;56912.56;5054833;28;20033;-83
2023/09/22 01:33:09;;;;;;;3.13;1.33;;;16.10;99.90;;;-144.05;74.90;56942.28;5053219;28;20033;-85
2023/09/22 01:35:36;;;;;;;4.55;1.00;;;15.60;99.90;;;-144.05;74.79;56908.31;5053304;28;20098;-87
2023/09/22 01:38:18;;;;;;;1.40;0.95;;;15.90;99.90;;;-144.05;75.16;56906.19;5054952;28;20029;-85
2023/09/22 01:40:45;;;;;;;1.75;0.95;;;;;;;-144.05;75.60;56918.94;5048703;28;20111;-84
2023/09/22 01:43:12;;;;;;;3.95;1.02;;;15.60;99.90;;;-144.05;75.38;56938.03;5053335;28;20036;-86
2023/09/22 01:45:39;;;;;;;1.92;1.17;;;;;;;-144.05;76.05;56912.56;5053334;28;20021;-85
2023/09/22 01:48:07;;;;;;;2.72;1.20;;;15.60;99.90;;;-144.05;75.92;56931.66;5054582;28;20032;-86
2023/09/22 01:50:37;;;;;;;3.30;1.25;;;14.30;99.90;;;-144.05;76.91;56908.31;5054665;28;20029;-86
2023/09/22 01:53:05;;;;;;;1.90;1.23;;;15.50;99.90;;;-144.05;76.79;56912.56;5054353;28;20036;-87
2023/09/22 01:55:38;;;;;;;3.03;1.58;;;;;;;-144.05;77.03;56944.41;5046292;28;20039;-86
2023/09/22 01:58:05;;;;;;;2.78;1.25;;;;;;;-144.05;76.86;56921.06;5053235;28;20029;-87
2023/09/22 02:00:35;;;;;;;3.50;1.38;;;14.40;99.90;;;-144.05;76.79;56923.19;5045107;28;20035;-88
2023/09/22 02:03:02;;;;;;;2.13;1.15;;;;;;;-144.05;76.71;56916.81;5052805;28;20124;-86
2023/09/22 02:05:31;;;;;;;2.47;1.08;;;15.90;99.90;;;-144.05;76.68;56933.78;5044838;28;20029;-82
2023/09/22 02:08:02;;;;;;;3.72;1.10;;;12.70;99.90;;;-144.05;77.34;56925.28;5052727;28;20402;-85
2023/09/22 02:10:29;;;;;;;4.32;1.40;;;;;;;-144.05;77.48;56933.78;5062409;28;20036;-85
2023/09/22 02:12:54;;;;;;;5.05;1.23;;;15.60;99.90;;;-144.05;77.82;56914.69;5052838;28;20033;-84
2023/09/22 02:15:21;;;;;;;1.92;1.20;;;;;;;-144.05;76.89;56942.28;5052738;28;20059;-86
2023/09/22 02:17:47;;;;;;;1.75;1.00;;;13.20;99.90;;;-144.05;77.03;56933.78;5052357;28;20047;-85
2023/09/22 02:22:43;;;;;;;1.98;1.08;;;12.00;99.90;;;-144.05;75.95;56916.81;5054017;28;20089;-87
2023/09/22 02:25:10;;;;;;;1.95;1.20;;;12.60;99.90;;;-144.05;76.74;56912.56;5052732;28;20095;-85
2023/09/22 02:27:36;;;;;;;3.58;1.00;;;;;;;-144.05;77.81;56948.66;5052775;28;20025;-84
2023/09/22 02:30:03;;;;;;;1.90;0.90;;;15.80;99.90;;;-144.05;77.49;56931.66;5052595;28;20040;-87
2023/09/22 02:32:29;;;;;;;3.55;1.05;;;15.70;99.90;;;-144.05;78.28;56935.91;5052112;28;20475;-83
2023/09/22 02:34:57;;;;;;;2.92;1.10;;;;;;;-144.05;78.95;56889.19;5052274;28;20548;-85
2023/09/22 02:37:23;;;;;;;4.43;1.33;;;15.80;99.90;;;-144.05;78.80;56938.03;5052260;28;20491;-86
2023/09/22 02:39:49;;;;;;;3.72;1.23;;;;;;;-144.05;79.37;56916.81;5053523;28;20119;-82
2023/09/22 02:42:15;;;;;;;2.90;1.10;;;;;;;-144.05;78.78;56925.28;5053360;28;20047;-84
2023/09/22 02:44:42;;;;;;;5.88;1.20;;;;;;;-144.05;78.20;56929.53;5053707;28;20025;-85
2023/09/22 02:47:07;;;;;;;4.78;1.27;;;15.30;99.90;;;-144.05;77.84;56927.41;5052065;28;20039;-87
2023/09/22 02:49:34;;;;;;;2.25;0.90;;;;;;;-144.05;77.98;56950.78;5062129;28;20053;-84
2023/09/22 02:51:59;;;;;;;2.78;1.10;;;11.70;99.90;;;-144.05;78.46;56925.28;5061446;28;20036;-87
2023/09/22 02:54:26;;;;;;;3.53;1.38;;;;;;;-144.05;78.33;56906.19;5052961;28;20028;-86
2023/09/22 02:56:53;;;;;;;4.30;1.73;;;15.20;99.90;;;-144.05;77.65;56906.19;5052356;28;20115;-85
2023/09/22 02:59:19;;;;;;;3.53;1.20;;;14.20;99.90;;;-144.05;77.31;56935.91;5051878;28;20052;-88
2023/09/22 03:01:45;;;;;;;4.85;1.20;;;;;;;-144.05;77.41;56904.06;5053018;28;20075;-87
2023/09/22 03:04:11;;;;;;;4.82;1.40;;;;;;;-144.05;77.23;56899.81;5052491;28;20036;-87
2023/09/22 03:06:37;;;;;;;2.05;1.30;;;15.90;99.90;;;-144.05;77.72;56923.19;5053615;28;20064;-88
2023/09/22 03:09:06;;;;;;;2.72;1.48;;;15.30;99.90;;;-144.05;77.56;56940.16;5053180;28;20025;-82
2023/09/22 03:11:41;;;;;;;4.68;1.58;;;14.20;99.90;;;-144.05;78.00;56923.19;5044038;28;20035;-88
2023/09/22 03:14:08;;;;;;;2.95;1.70;;;;;;;-144.05;78.03;56923.19;5052819;28;20398;-86
2023/09/22 03:16:34;;;;;;;3.40;1.70;;;15.10;99.90;;;-144.05;78.26;56908.31;5053210;28;20033;-84
2023/09/22 03:19:00;;;;;;;10.73;1.73;;;;;;;-144.05;78.09;56906.19;5051561;28;20029;-84
2023/09/22 03:21:27;;;;;;;4.88;1.50;;;;;;;-144.05;77.71;56916.81;5052833;28;20033;-85
2023/09/22 03:23:54;;;;;;;1.50;1.33;;;15.30;99.90;;;-144.05;78.05;56927.41;5051837;28;20463;-86
2023/09/22 03:26:22;;;;;;;6.10;1.45;;;14.10;99.90;;;-144.05;77.88;56929.53;5051530;28;20033;-87
2023/09/22 03:28:49;;;;;;;2.25;1.38;;;14.10;99.90;;;-144.05;77.91;56914.69;5052894;28;20499;-87
2023/09/22 03:31:16;;;;;;;3.38;1.75;;;;;;;-144.05;77.86;56910.44;5051538;28;20029;-86
2023/09/22 03:33:45;;;;;;;4.97;1.92;;;15.30;99.90;;;-144.05;77.76;56931.66;5045139;28;20025;-88
2023/09/22 03:36:12;;;;;;;4.88;1.92;;;15.40;99.90;;;-144.05;78.67;56912.56;5051331;28;20029;-89
2023/09/22 03:38:41;;;;;;;6.68;2.17;;;15.70;99.90;;;-144.05;78.92;56942.28;5052823;28;20434;-85
2023/09/22 03:41:07;;;;;;;7.22;1.65;;;12.10;99.90;;;-144.05;79.02;56955.03;5052335;28;20025;-86
2023/09/22 03:43:34;;;;;;;6.57;1.77;;;15.50;99.90;;;-144.05;79.25;56921.06;5052382;28;20038;-86
2023/09/22 03:46:01;;;;;;;4.35;1.55;;;15.60;99.90;;;-144.05;79.38;56921.06;5052761;28;20534;-84
2023/09/22 03:48:27;;;;;;;7.32;2.05;;;11.60;99.90;;;-144.05;78.90;56921.06;5059570;28;20548;-85
2023/09/22 03:50:56;;;;;;;4.70;1.70;;;11.90;99.90;;;-144.05;79.23;56940.16;5052434;28;20033;-85
2023/09/22 03:53:27;;;;;;;4.68;1.65;;;;;;;-144.05;79.43;56923.19;5050909;28;20029;-87
2023/09/22 03:55:53;;;;;;;3.88;1.92;;;15.10;99.90;;;-144.05;79.79;56906.19;5051561;28;20029;-86
2023/09/22 03:58:20;;;;;;;4.38;1.50;;;;;;;-144.05;79.54;56940.16;5051243;28;20040;-87
2023/09/22 04:00:46;;;;;;;2.97;1.70;;;14.70;99.90;;;-144.05;79.73;56933.78;5051260;28;20036;-86
2023/09/22 04:03:13;;;;;;;5.60;1.73;;;10.90;99.90;;;-144.05;79.77;56929.53;5049831;28;20044;-87
2023/09/22 04:05:40;;;;;;;4.60;1.27;;;13.40;99.90;;;-144.05;79.83;56904.06;5044335;28;20056;-85
2023/09/22 04:08:06;;;;;;;3.03;1.67;;;15.40;99.90;;;-144.05;80.45;56944.41;5051080;28;20171;-86
2023/09/22 04:10:33;;;;;;;3.65;1.75;;;13.30;99.90;;;-144.05;80.84;56925.28;5052324;28;20075;-87
2023/09/22 04:12:59;;;;;;;6.03;2.70;;;;;;;-144.05;80.25;56910.44;5050865;28;20135;-84
2023/09/22 04:15:26;;;;;;;1.83;1.20;;;15.00;99.90;;;-144.05;80.97;56931.66;5050873;28;20494;-86
2023/09/22 04:17:52;;;;;;;5.18;1.70;;;15.40;99.90;;;-144.05;80.96;56925.28;5050913;28;20037;-84
2023/09/22 04:20:28;;;;;;;6.85;1.80;;;15.30;99.90;;;-144.05;80.89;56908.31;5051936;28;20104;-86
2023/09/22 04:22:58;;;;;;;7.30;1.60;;;10.70;99.90;;;-144.05;81.11;56921.06;5067209;28;20450;-85
2023/09/22 04:25:33;;;;;;;4.07;1.75;;;10.90;99.90;;;-144.05;80.78;56918.94;5050989;28;20372;-86
2023/09/22 04:28:17;;;;;;;3.17;1.58;;;;;;;-144.05;80.50;56914.69;5043724;28;20470;-85
2023/09/22 04:30:43;;;;;;;2.88;1.17;;;14.60;99.90;;;-144.05;80.22;56916.81;5045645;28;20037;-86
2023/09/22 04:33:12;;;;;;;3.65;1.40;;;14.80;99.90;;;-144.05;80.43;56925.28;5061859;28;20333;-85
2023/09/22 04:35:39;;;;;;;5.30;1.70;;;10.20;99.90;;;-144.05;80.51;56942.28;5054858;28;20056;-87
2023/09/22 04:38:04;;;;;;;4.57;1.27;;;13.00;99.90;;;-144.05;80.69;56923.19;5054999;28;20101;-86
2023/09/22 04:40:38;;;;;;;4.22;1.67;;;15.40;99.90;;;-144.05;81.06;56925.28;5059846;28;20053;-89
2023/09/22 04:43:07;;;;;;;2.40;1.40;;;12.80;99.90;;;-144.05;81.11;56925.28;5058704;28;20057;-86
2023/09/22 04:45:40;;;;;;;5.50;1.48;;;12.80;99.90;;;-144.05;80.99;56940.16;5066624;28;20479;-88
2023/09/22 04:48:08;;;;;;;4.95;1.63;;;14.90;99.90;;;-144.05;81.07;56929.53;5066126;28;20029;-86
2023/09/22 04:50:35;;;;;;;4.57;1.45;;;10.30;99.90;;;-144.05;81.17;56929.53;5071269;28;20136;-87
2023/09/22 04:53:01;;;;;;;2.85;1.33;;;;;;;-144.05;81.37;56923.19;5055122;28;20406;-86
2023/09/22 04:55:34;;;;;;;3.95;1.95;;;;;;;-144.05;81.09;56927.41;5055362;28;20025;-85
2023/09/22 04:58:02;;;;;;;4.25;1.73;;;14.40;99.90;;;-144.05;81.20;56927.41;5056021;28;20482;-87
2023/09/22 05:00:28;;;;;;;4.00;1.60;;;14.50;99.90;;;-144.05;80.87;56925.28;5055833;28;20087;-87
2023/09/22 05:02:55;;;;;;;3.45;1.50;;;;;;;-144.05;80.39;56918.94;5056181;28;20108;-88
2023/09/22 05:05:22;;;;;;;4.43;1.45;;;;;;;-144.05;80.33;56906.19;5056042;28;20028;-86
2023/09/22 05:07:50;;;;;;;1.42;1.05;;;12.80;99.90;;;-144.05;79.85;56912.56;5056359;28;20112;-87
2023/09/22 05:10:17;;;;;;;4.50;1.20;;;;;;;-144.05;79.96;56940.16;5055943;28;20025;-87
2023/09/22 05:12:43;;;;;;;4.13;1.35;;;10.90;99.90;;;-144.05;79.75;56912.56;5054662;28;20388;-84
2023/09/22 05:15:09;;;;;;;3.60;1.50;;;15.40;99.90;;;-144.05;80.21;56925.28;5046203;28;20033;-84
2023/09/22 05:17:36;;;;;;;2.28;1.15;;;;;;;-144.05;80.33;56921.06;5056341;28;20078;-86
2023/09/22 05:20:05;;;;;;;3.17;1.35;;;;;;;-144.05;80.11;56929.53;5054594;28;20041;-86
2023/09/22 05:22:32;;;;;;;3.75;1.27;;;;;;;-144.05;80.34;56914.69;5039676;28;20036;-86
2023/09/22 05:24:57;;;;;;;4.57;1.35;;;15.20;99.90;;;-144.05;80.18;56940.16;5054788;28;20109;-87
2023/09/22 05:27:26;;;;;;;5.43;1.80;;;;;;;-144.05;79.80;56884.94;5054370;28;20049;-86
2023/09/22 05:29:53;;;;;;;1.42;0.98;;;14.70;99.90;;;-144.05;79.90;56944.41;5054630;28;20029;-81
2023/09/22 05:32:20;;;;;;;9.48;1.55;;;;;;;-144.05;79.59;56933.78;5056205;28;20036;-86
2023/09/22 05:34:45;;;;;;;1.80;1.05;;;14.70;99.90;;;-144.05;79.62;56923.19;5054538;28;20037;-86
2023/09/22 05:37:12;;;;;;;5.18;1.38;;;;;;;-144.05;80.12;56935.91;5054930;28;20410;-86
2023/09/22 05:39:38;;;;;;;5.63;1.52;;;;;;;-144.05;79.88;56942.28;5056524;28;20083;-84
2023/09/22 05:42:06;;;;;;;1.67;0.90;;;10.30;99.90;;;-144.05;79.32;56935.91;5053888;28;20048;-86
2023/09/22 05:44:32;;;;;;;2.20;1.02;;;;;;;-144.05;78.82;56916.81;5037900;28;20031;-88
2023/09/22 05:46:59;;;;;;;4.03;1.40;;;;;;;-144.05;78.62;56929.53;5054173;28;20025;-84
2023/09/22 05:49:27;;;;;;;1.48;1.20;;;15.30;99.90;;;-144.05;78.76;56946.53;5046005;28;20585;-87
2023/09/22 05:51:54;;;;;;;4.25;1.50;;;;;;;-144.05;78.59;56921.06;5053879;28;20128;-86
2023/09/22 05:54:20;;;;;;;4.45;1.27;;;;;;;-144.05;78.92;56906.19;5054044;28;20029;-86
2023/09/22 05:56:47;;;;;;;5.68;1.40;;;14.90;99.90;;;-144.05;78.48;56925.28;5053829;28;20499;-85
2023/09/22 05:59:14;;;;;;;3.33;1.08;;;;;;;-144.05;79.13;56918.94;5070530;28;20445;-85
2023/09/22 06:01:39;;;;;;;2.13;1.33;;;12.90;99.90;;;-144.05;78.92;56916.81;5053743;28;20036;-84
2023/09/22 06:04:06;;;;;;;2.10;1.08;;;15.00;99.90;;;-144.05;78.80;56933.78;5053990;28;20440;-85
2023/09/22 06:06:32;;;;;;;3.63;1.10;;;;;;;-144.05;79.41;56910.44;5053826;28;20032;-85
2023/09/22 06:08:59;;;;;;;5.10;1.30;;;;;;;-144.05;78.89;56929.53;5054620;28;20032;-85
2023/09/22 06:11:26;;;;;;;1.83;1.10;;;15.00;99.90;;;-144.05;78.80;56923.19;5053594;28;20491;-88
2023/09/22 06:13:52;;;;;;;3.30;1.50;;;15.30;99.90;;;-144.05;78.20;56908.31;5053693;28;20514;-84
2023/09/22 06:16:18;;;;;;;4.88;1.08;;;;;;;-144.05;77.94;56914.69;5054044;28;20130;-84
2023/09/22 06:18:45;;;;;;;4.60;1.40;;;;;;;-144.05;78.06;56948.66;5061131;28;20107;-85
2023/09/22 06:21:12;;;;;;;2.88;0.98;;;;;;;-144.05;77.61;56908.31;5051489;28;20119;-85
2023/09/22 06:23:38;;;;;;;3.70;1.00;;;;;;;-144.05;77.04;56916.81;5055503;28;20083;-82
2023/09/22 06:26:09;;;;;;;2.85;0.90;;;15.10;99.90;;;-144.05;76.74;56927.41;5056212;28;20122;-84
2023/09/22 06:28:37;;;;;;;8.63;2.10;;;15.20;99.90;;;-144.05;76.59;56918.94;5050653;28;20037;-87
2023/09/22 06:31:05;;;;;;;5.07;1.13;;;14.80;99.90;;;-144.05;76.04;56910.44;5041734;28;20067;-86
2023/09/22 06:33:32;;;;;;;3.10;1.10;;;;;;;-144.05;76.32;56946.53;5037396;28;20052;-85
2023/09/22 06:36:04;;;;;;;3.63;1.67;;;13.50;99.90;;;-144.05;76.35;56910.44;5055168;28;20040;-87
2023/09/22 06:38:34;;;;;;;3.03;1.38;;;;;;;-144.05;76.14;56893.44;5051991;28;20043;-82
2023/09/22 06:41:04;;;;;;;1.95;1.17;;;;;;;-144.05;76.66;56921.06;5053164;28;20117;-86
2023/09/22 06:43:33;;;;;;;2.53;0.88;;;;;;;-144.05;75.53;56927.41;5057821;28;20048;-83
2023/09/22 06:46:04;;;;;;;2.90;1.13;;;13.60;99.90;;;-144.05;75.50;56908.31;5057286;28;20079;-88
2023/09/22 06:48:30;;;;;;;3.78;1.23;;;15.40;99.90;;;-144.05;75.73;56929.53;5054895;28;20116;-87
2023/09/22 06:50:58;;;;;;;3.35;1.00;;;13.70;99.90;;;-144.05;75.40;56929.53;5052498;28;20035;-89
2023/09/22 06:53:29;;;;;;;2.40;1.08;;;15.10;99.90;;;-144.05;75.52;56931.66;5052689;28;20036;-83
2023/09/22 06:56:10;;;;;;;5.50;1.40;;;11.20;99.90;;;-144.05;75.25;56908.31;5052157;28;20021;-86
2023/09/22 06:58:40;;;;;;;3.00;1.30;;;;;;;-144.05;75.01;56938.03;5054776;28;20036;-84
2023/09/22 07:01:14;;;;;;;7.80;1.30;;;11.60;99.90;;;-144.05;75.77;56938.03;5053028;28;20025;-86
2023/09/22 07:03:45;;;;;;;1.63;0.82;;;15.50;99.90;;;-144.05;74.91;56916.81;5053767;28;20033;-87
2023/09/22 07:06:16;;;;;;;2.65;0.80;;;15.40;99.90;;;-144.05;75.33;56929.53;5044485;28;20024;-88
2023/09/22 07:08:46;;;;;;;4.18;1.08;;;14.80;99.90;;;-144.05;75.31;56933.78;5053083;28;20021;-89
2023/09/22 07:11:13;;;;;;;4.05;1.10;;;15.20;99.90;;;-144.05;74.83;56925.28;5052926;28;20029;-90
2023/09/22 07:13:41;;;;;;;3.63;0.93;;;14.00;99.90;;;-144.05;74.12;56940.16;5054074;28;20044;-87
2023/09/22 07:16:08;;;;;;;2.08;0.98;;;15.10;99.90;;;-144.05;73.75;56927.41;5052531;28;20047;-86
2023/09/22 07:18:34;;;;;;;6.53;1.40;;;15.60;99.90;;;-144.05;73.35;56918.94;5054609;28;20096;-87
2023/09/22 07:21:00;;;;;;;3.80;0.68;;;;;;;-144.05;70.86;56912.56;5054395;28;20029;-86
2023/09/22 07:23:27;;;;;;;5.03;1.25;;;14.80;99.90;;;-144.05;70.07;56933.78;5079108;22;20083;-82
2023/09/22 07:26:02;;;;;;;2.33;1.23;;;15.10;99.90;;;-144.05;68.86;56914.69;5031701;28;20033;-80
2023/09/22 07:28:31;;;;;;;3.60;1.10;;;16.30;99.90;;;-144.05;68.57;56925.28;5060224;28;20017;-81
2023/09/22 07:30:58;;;;;;;11.55;3.08;;;15.30;99.90;;;-144.05;69.25;56921.06;5042777;28;20072;-82
2023/09/22 07:33:30;;;;;;;3.65;1.30;;;;;;;-144.05;70.67;56908.31;5059630;28;20051;-80
2023/09/22 07:36:00;;;;;;;4.13;1.38;;;12.90;99.90;;;-144.05;70.96;56940.16;5067193;28;20047;-83
2023/09/22 07:38:27;;;;;;;1.55;0.57;;;14.90;99.90;;;-144.05;70.80;56938.03;5057704;28;20032;-83
2023/09/22 07:40:53;;;;;;;1.40;0.80;;;12.90;99.90;;;-144.05;71.40;56955.03;5043937;28;20032;-81
2023/09/22 07:43:19;;;;;;;3.20;0.77;;;16.20;99.90;;;-144.05;70.88;56916.81;5032870;28;20083;-82
2023/09/22 07:45:45;;;;;;;2.35;0.95;;;16.20;99.90;;;-144.05;69.79;56948.66;5023063;28;20055;-80
2023/09/22 07:48:12;;;;;;;2.67;1.00;;;16.50;99.90;;;-144.05;70.08;56916.81;5038622;28;20061;-79
2023/09/22 07:50:39;;;;;;;2.22;0.90;;;16.20;99.90;;;-144.05;69.42;56931.66;5038813;28;20017;-83
2023/09/22 07:53:05;;;;;;;4.25;1.42;;;15.90;99.90;;;-144.05;69.88;56931.66;5039559;28;20029;-82
2023/09/22 07:55:32;;;;;;;2.17;0.80;;;16.60;99.90;;;-144.05;69.57;56923.19;5046994;28;20521;-82
2023/09/22 07:57:58;;;;;;;2.25;0.90;;;15.20;99.90;;;-144.05;69.08;56918.94;5046653;28;20051;-81
2023/09/22 08:00:26;;;;;;;3.65;1.20;;;13.00;99.90;;;-144.05;69.33;56893.44;5040541;28;20033;-82
2023/09/22 08:02:53;;;;;;;4.32;1.45;;;13.80;99.90;;;-144.05;68.74;56931.66;5060418;28;20029;-82
2023/09/22 08:05:20;;;;;;;2.00;0.63;;;13.60;99.90;;;-144.05;68.12;56921.06;5058312;28;20485;-81
2023/09/22 08:07:49;;;;;;;3.28;0.63;;;;;;;-144.05;67.95;56923.19;5059546;28;20059;-83
2023/09/22 08:10:17;;;;;;;1.42;0.80;;;17.00;99.90;;;-144.05;68.21;56933.78;5050506;28;20025;-82
2023/09/22 08:12:44;;;;;;;2.50;0.47;;;16.50;99.90;;;-144.05;68.66;56938.03;5046130;28;20080;-82
2023/09/22 08:15:10;;;;;;;3.83;0.73;;;17.00;99.90;;;-144.05;68.13;56925.28;5047368;28;20470;-81
2023/09/22 08:17:37;;;;;;;2.92;0.47;;;;;;;-144.05;68.25;56933.78;5037236;28;20033;-81
2023/09/22 08:20:07;;;;;;;2.58;0.90;;;17.60;99.90;;;-144.05;67.73;56938.03;5041199;28;20056;-84
2023/09/22 08:22:34;;;;;;;3.13;0.70;;;17.50;99.90;;;-144.05;66.05;56908.31;5055813;28;20025;-82
2023/09/22 08:25:01;;;;;;;1.60;0.68;;;;;;;-144.05;65.68;56923.19;5052575;28;20025;-82
2023/09/22 08:27:29;;;;;;;0.70;0.60;;;17.80;99.90;;;-144.05;65.37;56929.53;5044209;28;20051;-84
2023/09/22 08:29:55;;;;;;;2.35;0.60;;;17.30;99.90;;;-144.05;63.69;56925.28;5035475;28;20033;-83
2023/09/22 08:32:22;;;;;;;6.85;1.83;;;14.20;99.90;;;-144.05;65.72;56923.19;5054921;28;20445;-83
2023/09/22 08:34:48;;;;;;;1.23;0.55;;;14.70;99.90;;;-144.05;63.92;56938.03;5022146;28;20064;-84
2023/09/22 08:37:15;;;;;;;2.97;0.85;;;17.10;99.90;;;-144.05;65.26;56938.03;5049272;28;20029;-83
2023/09/22 08:39:42;;;;;;;3.05;0.60;;;17.70;99.90;;;-144.05;65.59;56929.53;5041743;28;20025;-84
2023/09/22 08:42:09;;;;;;;4.65;0.88;;;17.50;99.90;;;-144.05;63.62;56935.91;5044670;28;20028;-81
2023/09/22 08:44:36;;;;;;;1.60;0.68;;;16.70;99.90;;;-144.05;62.96;56940.16;5039374;28;20044;-81
2023/09/22 08:47:03;;;;;;;2.20;0.90;;;17.60;99.90;;;-144.05;63.76;56957.16;5039283;28;20048;-84
2023/09/22 08:49:28;;;;;;;6.85;1.83;;;17.90;99.90;;;-144.05;63.24;56933.78;5046467;28;20022;-83
2023/09/22 08:51:56;;;;;;;3.80;0.82;;;16.90;99.90;;;-144.05;62.97;56944.41;5054600;28;20040;-83
2023/09/22 08:54:22;;;;;;;2.25;0.60;;;18.30;99.90;;;-144.05;61.60;56933.78;5042038;28;20022;-83
2023/09/22 08:56:47;;;;;;;3.50;0.85;;;17.20;99.90;;;-144.05;60.91;56938.03;5045441;28;20028;-81
2023/09/22 08:59:13;;;;;;;3.08;0.70;;;18.60;99.90;;;-144.05;59.34;56929.53;5062378;28;20108;-80
2023/09/22 09:01:39;;;;;;;3.22;0.90;;;16.40;99.90;;;-144.05;58.26;56942.28;5065760;28;20398;-83
2023/09/22 09:04:40;;;;;;;2.10;0.90;;;16.80;99.90;;;-144.05;57.22;56942.28;5046268;28;20048;-82
2023/09/22 09:07:06;;;;;;;2.17;0.68;;;16.40;99.90;;;-144.05;55.07;56918.94;5042024;28;20119;-81
2023/09/22 09:09:49;;;;;;;2.17;1.00;;;16.00;99.90;;;-144.05;58.15;56938.03;5049461;28;20477;-83
2023/09/22 09:12:15;;;;;;;1.38;0.60;;;;;;;-144.05;57.20;56948.66;5058174;28;20029;-83
2023/09/22 09:14:46;;;;;;;3.60;0.80;;;15.20;99.90;;;-144.05;60.25;56925.28;5039121;28;20026;-83
2023/09/22 09:17:22;;;;;;;1.77;0.70;;;18.40;99.90;;;-144.05;62.13;56923.19;5028711;28;20109;-84
2023/09/22 09:20:00;;;;;;;3.70;0.82;;;18.20;99.90;;;-144.05;61.86;56918.94;5060066;28;20036;-85
2023/09/22 09:22:38;;;;;;;3.78;0.82;;;18.30;99.90;;;-144.05;60.25;56938.03;5046018;28;20029;-83
2023/09/22 09:25:09;;;;;;;2.78;0.82;;;17.80;99.90;;;-144.05;60.35;56961.41;5035737;28;20033;-81
2023/09/22 09:27:35;;;;;;;4.32;0.80;;;17.90;99.90;;;-144.05;59.77;56916.81;5048198;28;20029;-82
2023/09/22 09:30:11;;;;;;;1.40;0.70;;;17.50;99.90;;;-144.05;59.71;56940.16;5038871;28;20113;-82
2023/09/22 09:32:38;;;;;;;2.50;0.90;;;16.60;99.90;;;-144.05;59.51;56944.41;5048438;28;20029;-82
2023/09/22 09:35:04;;;;;;;1.92;0.68;;;18.00;99.90;;;-144.05;57.35;56955.03;5039577;28;20032;-81
2023/09/22 09:37:30;;;;;;;2.30;0.77;;;18.60;99.90;;;-144.05;57.23;56940.16;5057969;28;20116;-82
2023/09/22 09:39:57;;;;;;;2.50;0.80;;;;;;;-144.05;58.43;56950.78;5059649;28;20065;-82
2023/09/22 09:42:26;;;;;;;2.88;0.98;;;17.60;99.90;;;-144.05;60.27;56912.56;5049944;28;20035;-81
2023/09/22 09:44:57;;;;;;;2.33;0.90;;;17.00;99.90;;;-144.05;60.11;56938.03;5046196;28;20049;-83
2023/09/22 09:47:29;;;;;;;7.43;1.15;;;17.50;99.90;;;-144.05;59.77;56938.03;5048073;28;20022;-83
2023/09/22 09:49:57;;;;;;;3.00;0.90;;;16.40;99.90;;;-144.05;60.65;56940.16;5046022;28;20021;-81
2023/09/22 09:52:42;;;;;;;2.17;0.80;;;17.60;99.90;;;-144.05;61.36;56963.53;5039692;28;20474;-80
2023/09/22 09:55:14;;;;;;;2.60;1.15;;;16.30;99.90;;;-144.05;61.38;56944.41;5037151;28;20085;-81
2023/09/22 09:57:44;;;;;;;1.92;0.93;;;16.30;99.90;;;-144.05;60.75;56946.53;5037782;28;20379;-82
2023/09/22 10:00:20;;;;;;;1.35;0.70;;;17.20;99.90;;;-144.05;60.34;56959.28;5029024;28;20029;-81
2023/09/22 10:02:51;;;;;;;3.08;0.82;;;17.90;99.90;;;-144.05;60.72;56935.91;5053395;28;20025;-82
2023/09/22 10:05:22;;;;;;;2.42;0.90;;;18.50;99.90;;;-144.05;60.36;56944.41;5037651;28;20065;-82
2023/09/22 10:07:56;;;;;;;2.63;0.90;;;15.50;99.90;;;-144.05;59.53;56929.53;5044664;28;20029;-83
2023/09/22 10:10:23;;;;;;;5.32;0.93;;;14.90;99.90;;;-144.05;59.91;56933.78;5038229;28;20043;-82
2023/09/22 10:12:49;;;;;;;2.88;0.77;;;14.80;99.90;;;-144.05;59.11;56944.41;5060859;28;20114;-82
2023/09/22 10:15:15;;;;;;;1.05;0.70;;;;;;;-144.05;59.38;56938.03;5059136;28;20104;-82
2023/09/22 10:17:42;;;;;;;1.48;0.90;;;;;;;-144.05;58.48;56963.53;5058658;28;20055;-84
2023/09/22 10:20:11;;;;;;;3.67;1.00;;;16.60;99.90;;;-144.05;59.36;56927.41;5025482;28;20037;-83
2023/09/22 10:22:39;;;;;;;2.60;1.20;;;18.00;99.90;;;-144.05;59.19;56955.03;5038752;28;20025;-83
2023/09/22 10:25:14;;;;;;;1.73;0.90;;;17.30;99.90;;;-144.05;59.55;56948.66;5039440;28;20457;-83
2023/09/22 10:28:08;;;;;;;3.47;1.03;;;18.00;99.90;;;-144.05;59.09;56944.41;5038167;28;20029;-83
2023/09/22 10:30:57;;;;;;;1.15;0.70;;;14.70;99.90;;;-144.05;59.05;56935.91;5040302;28;20048;-84